Huvudsida
METAR-TAF:

METAR-TAF

Flygplatser :

Wattay International Airport

Vientiane, Laos

latitud: 17-57N, longitud: 102-34E, höjd: 171 m

Aktuellt väderrapport

Denna rapport gjordes för 28 minuter sedan, klockan 08:30 UTC
Vind 4 kt från nord/nordväst
Temperatur 30°C
Fuktighet 52%
Tryck 1015 hPa
Sikt 10 km eller mer
Spridda moln på en höjd av 2000 ft

METAR: VLVT 160830Z 34004KT 9999 SCT020 30/19 Q1015 NOSIG

Tid: 15:58 (08:58 UTC)

Väderprognos

Denna rapport gjordes för 3 timmar och 58 minuter sedan, klockan 05:00 UTC
Prognos gäller från 16 kl. 06 UTC till 17 kl. 06 UTC
Vind 4 kt från ost
Sikt: 8000 m
Få moln på en höjd av 2000 ft
Få moln på en höjd av 20000 ft
Temporärt
från 16 kl. 14 UTC till 16 kl. 20 UTC
Sikt: 4000 m
Få moln på en höjd av 5000 ft
Få moln på en höjd av 20000 ft
fuktdis

TAF: VLVT 160500Z 1606/1706 09004KT 8000 FEW020 FEW200 TEMPO 1614/1620 4000 BR FEW050 FEW200

Aktuella väderrapporter och prognoser från 4000 flygplatser (METAR- och TAF-rapporter).

De tillgängliga stationerna syns som gula och röda prickar på kartan.

För musen över prickarna för att se namnen på stationerna.

Klicka sedan för att få väderrapporter och prognoser.

För att ändra kartan: Klicka på de gröna knapparna med ett svart kors på för att zooma in; den gröna knappen med ett streck på för att zooma ut; eller på de gröna pilarna för angränsande kartor.


METAR-TAF: